Time;durP1;ratioP1;P1;durP2;ratioP2;P2;SDS_P1;SDS_P2;PMS_P1;PMS_P2;Temp;Humidity;BMP_temperature;BMP_pressure;BME280_temperature;BME280_humidity;BME280_pressure;Samples;Min_cycle;Max_cycle;Signal;HPM_P1;HPM_P2
2024/01/21 00:01:31;;;;;;;72.37;66.77;;;1.10;99.90;;;;;;5043880;28;20056;-76
2024/01/21 00:03:58;;;;;;;74.93;69.07;;;1.00;99.90;;;;;;5055137;28;20048;-77
2024/01/21 00:06:24;;;;;;;73.37;67.13;;;0.90;99.90;;;;;;5054683;28;20056;-76
2024/01/21 00:08:50;;;;;;;72.87;67.50;;;0.80;99.90;;;;;;5054406;28;20040;-76
2024/01/21 00:11:16;;;;;;;64.43;58.97;;;0.70;99.90;;;;;;5054598;28;20632;-76
2024/01/21 00:13:42;;;;;;;76.57;70.70;;;0.60;99.90;;;;;;5063932;28;20037;-76
2024/01/21 00:16:08;;;;;;;64.63;59.43;;;0.70;99.90;;;;;;5041843;28;20104;-76
2024/01/21 00:18:34;;;;;;;49.80;45.47;;;0.80;99.90;;;;;;5054416;28;20033;-76
2024/01/21 00:21:00;;;;;;;48.43;44.13;;;0.90;99.90;;;;;;5054160;28;20028;-77
2024/01/21 00:23:26;;;;;;;47.77;43.40;;;1.10;99.90;;;;;;5049213;28;20052;-76
2024/01/21 00:25:52;;;;;;;50.67;46.13;;;1.20;99.90;;;;;;5040992;28;20036;-76
2024/01/21 00:28:18;;;;;;;70.43;64.83;;;1.30;99.90;;;;;;5054531;28;20395;-76
2024/01/21 00:30:44;;;;;;;64.63;59.47;;;1.10;99.90;;;;;;5053142;28;20521;-77
2024/01/21 00:33:11;;;;;;;64.57;59.47;;;1.00;99.90;;;;;;5054510;28;20021;-75
2024/01/21 00:35:37;;;;;;;69.67;64.00;;;0.90;99.90;;;;;;5053625;28;20029;-77
2024/01/21 00:38:03;;;;;;;68.23;62.73;;;0.80;99.90;;;;;;5054117;28;20033;-76
2024/01/21 00:40:29;;;;;;;54.20;50.13;;;0.70;99.90;;;;;;5054298;28;20578;-76
2024/01/21 00:42:58;;;;;;;70.80;65.67;;;0.70;99.90;;;;;;5054184;28;20029;-76
2024/01/21 00:45:28;;;;;;;59.77;55.00;;;0.70;99.90;;;;;;5053676;28;20039;-75
2024/01/21 00:47:54;;;;;;;70.33;65.10;;;0.70;99.90;;;;;;5054123;28;20452;-75
2024/01/21 00:50:20;;;;;;;63.30;58.53;;;0.70;99.90;;;;;;5053254;28;20057;-75
2024/01/21 00:52:46;;;;;;;66.83;61.47;;;0.90;99.90;;;;;;5053970;28;20044;-76
2024/01/21 00:55:12;;;;;;;66.53;61.33;;;0.80;99.90;;;;;;5053512;28;20037;-76
2024/01/21 00:57:38;;;;;;;49.80;45.53;;;0.80;99.90;;;;;;5034249;28;20041;-76
2024/01/21 01:00:05;;;;;;;63.67;58.63;;;0.80;99.90;;;;;;5033491;28;20452;-75
2024/01/21 01:02:31;;;;;;;80.17;74.77;;;0.70;99.90;;;;;;5040875;28;20056;-77
2024/01/21 01:04:58;;;;;;;33.17;30.40;;;0.60;99.90;;;;;;5053444;28;20036;-75
2024/01/21 01:07:25;;;;;;;40.20;36.27;;;0.50;99.90;;;;;;5053747;28;20049;-76
2024/01/21 01:09:51;;;;;;;59.73;55.00;;;0.40;99.90;;;;;;5053696;28;20040;-75
2024/01/21 01:12:17;;;;;;;59.60;55.00;;;0.40;99.90;;;;;;5053372;28;20468;-75
2024/01/21 01:14:43;;;;;;;33.13;30.80;;;0.40;99.90;;;;;;5053182;28;20057;-75
2024/01/21 01:17:09;;;;;;;38.60;35.10;;;0.40;99.90;;;;;;5051093;28;20055;-76
2024/01/21 01:19:35;;;;;;;39.00;35.20;;;0.30;99.90;;;;;;5053234;28;20033;-76
2024/01/21 01:22:02;;;;;;;37.63;34.57;;;0.30;99.90;;;;;;5051148;28;20025;-76
2024/01/21 01:24:28;;;;;;;40.90;37.17;;;0.30;99.90;;;;;;5033681;28;20033;-75
2024/01/21 01:26:54;;;;;;;54.97;50.53;;;0.40;99.90;;;;;;5047215;28;20045;-75
2024/01/21 01:29:20;;;;;;;57.27;52.73;;;0.40;99.90;;;;;;5053443;28;20510;-75
2024/01/21 01:31:46;;;;;;;57.43;53.17;;;0.50;99.90;;;;;;5052560;28;20041;-76
2024/01/21 01:34:12;;;;;;;57.10;52.97;;;0.60;99.90;;;;;;5052895;28;20360;-76
2024/01/21 01:36:39;;;;;;;54.83;50.53;;;0.70;99.90;;;;;;5053341;28;20507;-75
2024/01/21 01:39:07;;;;;;;60.77;56.03;;;0.80;99.90;;;;;;5051667;28;20033;-76
2024/01/21 01:41:33;;;;;;;56.33;52.23;;;0.70;99.90;;;;;;5053099;28;20400;-76
2024/01/21 01:43:59;;;;;;;51.93;48.17;;;0.80;99.90;;;;;;5053268;28;20403;-76
2024/01/21 01:46:25;;;;;;;58.97;54.60;;;0.70;99.90;;;;;;5030552;28;20034;-75
2024/01/21 01:48:51;;;;;;;63.53;59.00;;;0.80;99.90;;;;;;5031667;28;20053;-75
2024/01/21 01:51:17;;;;;;;61.77;57.63;;;0.90;99.90;;;;;;5044064;28;20471;-76
2024/01/21 01:53:43;;;;;;;62.43;58.00;;;1.10;99.90;;;;;;5051597;28;20040;-75
2024/01/21 01:56:09;;;;;;;74.33;69.47;;;1.10;99.90;;;;;;5050534;28;20056;-76
2024/01/21 01:58:35;;;;;;;74.87;70.07;;;1.30;99.90;;;;;;5051567;28;20033;-76
2024/01/21 02:01:01;;;;;;;79.57;74.43;;;1.40;99.90;;;;;;5050822;28;20037;-75
2024/01/21 02:03:28;;;;;;;83.73;78.43;;;1.40;99.90;;;;;;5051976;28;20029;-76
2024/01/21 02:05:54;;;;;;;92.33;86.53;;;1.50;99.90;;;;;;5051105;28;20037;-75
2024/01/21 02:08:20;;;;;;;94.23;88.50;;;1.70;99.90;;;;;;5052524;28;20037;-76
2024/01/21 02:10:46;;;;;;;68.80;64.57;;;1.70;99.90;;;;;;5051864;28;20415;-75
2024/01/21 02:13:12;;;;;;;87.63;82.43;;;1.80;99.90;;;;;;5051780;28;20044;-76
2024/01/21 02:15:38;;;;;;;111.70;105.07;;;1.80;99.90;;;;;;5066983;28;20047;-76
2024/01/21 02:18:05;;;;;;;150.57;142.07;;;1.80;99.90;;;;;;5052290;28;20092;-75
2024/01/21 02:20:31;;;;;;;122.47;115.30;;;1.90;99.90;;;;;;5051995;28;20033;-76
2024/01/21 02:22:57;;;;;;;107.67;101.33;;;1.90;99.90;;;;;;5052032;28;20414;-75
2024/01/21 02:25:23;;;;;;;75.17;70.70;;;1.90;99.90;;;;;;5051573;28;20037;-75
2024/01/21 02:27:49;;;;;;;61.87;57.80;;;1.90;99.90;;;;;;5051301;28;20470;-75
2024/01/21 02:30:16;;;;;;;60.83;57.13;;;1.90;99.90;;;;;;5051426;28;20043;-75
2024/01/21 02:32:42;;;;;;;47.73;44.60;;;2.00;99.90;;;;;;5067211;28;20040;-75
2024/01/21 02:35:08;;;;;;;36.60;33.87;;;1.90;99.90;;;;;;5052202;28;20128;-76
2024/01/21 02:37:34;;;;;;;34.40;31.90;;;2.00;99.90;;;;;;5051979;28;20388;-75
2024/01/21 02:40:00;;;;;;;31.93;29.63;;;2.10;99.90;;;;;;5052062;28;20036;-75
2024/01/21 02:42:26;;;;;;;37.13;34.57;;;2.20;99.90;;;;;;5051809;28;20475;-75
2024/01/21 02:44:54;;;;;;;40.87;38.17;;;2.20;99.90;;;;;;5052057;28;20047;-75
2024/01/21 02:47:20;;;;;;;45.10;42.33;;;2.30;99.90;;;;;;5050991;28;20025;-76
2024/01/21 02:49:46;;;;;;;42.47;39.77;;;2.30;99.90;;;;;;5051919;28;20043;-76
2024/01/21 02:52:13;;;;;;;43.90;41.10;;;2.40;99.90;;;;;;5053377;28;20075;-76
2024/01/21 02:54:39;;;;;;;47.13;44.13;;;2.40;99.90;;;;;;5058505;28;20025;-76
2024/01/21 02:57:06;;;;;;;37.40;34.83;;;2.30;99.90;;;;;;5042751;28;20030;-76
2024/01/21 02:59:32;;;;;;;29.00;26.83;;;2.40;99.90;;;;;;5045190;28;20057;-76
2024/01/21 03:01:58;;;;;;;28.67;26.67;;;2.50;99.90;;;;;;5053934;28;20041;-76
2024/01/21 03:04:24;;;;;;;32.23;29.90;;;2.50;99.90;;;;;;5047236;28;20033;-76
2024/01/21 03:06:50;;;;;;;42.37;39.67;;;2.50;99.90;;;;;;5044834;28;20316;-76
2024/01/21 03:09:16;;;;;;;61.20;57.43;;;2.50;99.90;;;;;;5053560;28;20045;-76
2024/01/21 03:11:42;;;;;;;74.90;70.80;;;2.50;99.90;;;;;;5049951;28;20476;-76
2024/01/21 03:14:09;;;;;;;77.40;73.03;;;2.40;99.90;;;;;;5053377;28;20053;-76
2024/01/21 03:16:35;;;;;;;61.93;58.43;;;2.40;99.90;;;;;;5047831;28;20041;-76
2024/01/21 03:19:01;;;;;;;51.10;48.00;;;2.40;99.90;;;;;;5072699;28;20395;-76
2024/01/21 03:21:27;;;;;;;53.33;50.13;;;2.40;99.90;;;;;;5057340;28;20422;-76
2024/01/21 03:23:53;;;;;;;42.40;39.60;;;2.40;99.90;;;;;;5052369;28;20494;-76
2024/01/21 03:26:19;;;;;;;48.50;45.07;;;2.40;99.90;;;;;;5056723;28;20044;-76
2024/01/21 03:28:45;;;;;;;87.77;82.97;;;2.40;99.90;;;;;;5056927;28;20033;-77
2024/01/21 03:31:12;;;;;;;36.70;34.37;;;2.40;99.90;;;;;;5055989;28;20037;-76
2024/01/21 03:33:38;;;;;;;45.17;42.13;;;2.30;99.90;;;;;;5057119;28;20033;-76
2024/01/21 03:36:04;;;;;;;78.87;74.57;;;2.30;99.90;;;;;;5051289;28;20491;-76
2024/01/21 03:38:30;;;;;;;54.57;51.27;;;2.30;99.90;;;;;;5058200;28;20033;-75
2024/01/21 03:40:56;;;;;;;38.97;36.13;;;2.30;99.90;;;;;;5057877;28;20024;-76
2024/01/21 03:43:22;;;;;;;69.27;65.23;;;2.20;99.90;;;;;;5058414;28;20360;-76
2024/01/21 03:45:49;;;;;;;41.73;39.03;;;2.20;99.90;;;;;;5052134;28;20033;-76
2024/01/21 03:48:15;;;;;;;37.97;35.47;;;2.20;99.90;;;;;;5038219;28;20033;-77
2024/01/21 03:50:41;;;;;;;62.80;59.10;;;2.20;99.90;;;;;;5037973;28;20037;-76
2024/01/21 03:53:07;;;;;;;54.93;51.57;;;2.20;99.90;;;;;;5036364;28;20049;-76
2024/01/21 03:55:33;;;;;;;53.63;50.20;;;2.20;99.90;;;;;;5048286;28;20041;-76
2024/01/21 03:57:59;;;;;;;47.50;44.47;;;2.30;99.90;;;;;;5058203;28;20028;-76
2024/01/21 04:00:25;;;;;;;48.50;45.23;;;2.30;99.90;;;;;;5056907;28;20040;-73
2024/01/21 04:02:51;;;;;;;54.40;50.97;;;2.30;99.90;;;;;;5058074;28;20109;-74
2024/01/21 04:05:17;;;;;;;49.43;46.40;;;2.40;99.90;;;;;;5052793;28;20021;-76
2024/01/21 04:07:43;;;;;;;62.23;58.50;;;2.40;99.90;;;;;;5055114;28;20459;-76
2024/01/21 04:10:10;;;;;;;68.00;63.93;;;2.40;99.90;;;;;;5054669;28;20040;-76
2024/01/21 04:12:37;;;;;;;58.93;55.23;;;2.50;99.90;;;;;;5054643;28;20037;-76
2024/01/21 04:15:03;;;;;;;57.93;54.27;;;2.50;99.90;;;;;;5053963;28;20434;-74
2024/01/21 04:17:29;;;;;;;63.13;59.40;;;2.50;99.90;;;;;;5054411;28;20021;-76
2024/01/21 04:19:55;;;;;;;60.97;57.27;;;2.50;99.90;;;;;;5054713;28;20391;-76
2024/01/21 04:22:22;;;;;;;38.13;35.53;;;2.50;99.90;;;;;;5043596;28;20040;-76
2024/01/21 04:24:48;;;;;;;38.47;35.97;;;2.60;99.90;;;;;;5054475;28;20037;-76
2024/01/21 04:27:14;;;;;;;41.27;38.67;;;2.70;99.90;;;;;;5054648;28;20044;-76
2024/01/21 04:29:40;;;;;;;42.03;38.90;;;2.70;99.90;;;;;;5053935;28;20040;-76
2024/01/21 04:32:06;;;;;;;39.97;37.43;;;2.70;99.90;;;;;;5053609;28;20399;-76
2024/01/21 04:34:32;;;;;;;48.63;45.53;;;2.70;99.90;;;;;;5054462;28;20033;-76
2024/01/21 04:36:58;;;;;;;48.53;45.43;;;2.80;99.90;;;;;;5053116;28;20052;-76
2024/01/21 04:39:24;;;;;;;49.20;46.13;;;3.00;99.90;;;;;;5054784;28;20380;-76
2024/01/21 04:41:50;;;;;;;38.33;35.63;;;3.00;99.90;;;;;;5053780;28;20032;-75
2024/01/21 04:44:17;;;;;;;43.83;40.90;;;3.00;99.90;;;;;;5053948;28;20393;-76
2024/01/21 04:46:43;;;;;;;47.57;44.47;;;3.00;99.90;;;;;;5053600;28;20048;-76
2024/01/21 04:49:09;;;;;;;113.53;107.30;;;3.00;99.90;;;;;;5069614;28;20426;-76
2024/01/21 04:51:37;;;;;;;248.90;235.53;;;3.10;99.90;;;;;;5053781;28;20029;-76
2024/01/21 04:54:03;;;;;;;142.33;134.60;;;3.10;99.90;;;;;;5046008;28;20044;-76
2024/01/21 04:56:30;;;;;;;286.60;271.03;;;3.10;99.90;;;;;;5049291;28;20506;-76
2024/01/21 04:58:56;;;;;;;267.43;253.33;;;3.10;99.90;;;;;;5035015;28;20037;-76
2024/01/21 05:01:22;;;;;;;44.70;41.27;;;3.10;99.90;;;;;;5040420;28;20041;-77
2024/01/21 05:03:48;;;;;;;38.23;35.47;;;3.10;99.90;;;;;;5049182;28;20041;-76
2024/01/21 05:06:14;;;;;;;44.20;41.20;;;3.10;99.90;;;;;;5053265;28;20052;-76
2024/01/21 05:08:40;;;;;;;80.00;75.30;;;3.10;99.90;;;;;;5053915;28;20057;-76
2024/01/21 05:11:06;;;;;;;44.63;41.80;;;3.10;99.90;;;;;;5036185;28;20040;-77
2024/01/21 05:13:33;;;;;;;89.63;84.33;;;3.00;99.90;;;;;;5053268;28;20056;-77
2024/01/21 05:15:59;;;;;;;68.70;54.17;;;3.00;99.90;;;;;;5052387;28;20063;-77
2024/01/21 05:18:25;;;;;;;48.93;45.00;;;3.00;99.90;;;;;;5046656;28;20029;-77
2024/01/21 05:20:51;;;;;;;48.30;44.97;;;3.00;99.90;;;;;;5037829;28;20041;-77
2024/01/21 05:23:17;;;;;;;33.83;31.37;;;3.10;99.90;;;;;;5052618;28;20040;-77
2024/01/21 05:25:45;;;;;;;41.53;38.50;;;3.10;99.90;;;;;;5052766;28;20478;-77
2024/01/21 05:28:11;;;;;;;49.47;32.20;;;3.10;99.90;;;;;;5052702;28;20386;-77
2024/01/21 05:30:37;;;;;;;160.40;52.93;;;3.00;99.90;;;;;;5052382;28;20049;-77
2024/01/21 05:33:03;;;;;;;530.07;76.90;;;3.00;99.90;;;;;;5053293;28;20451;-76
2024/01/21 05:35:30;;;;;;;49.13;45.67;;;3.10;99.90;;;;;;5049724;28;20033;-77
2024/01/21 05:37:56;;;;;;;89.50;84.20;;;3.10;99.90;;;;;;5053296;28;20089;-77
2024/01/21 05:40:22;;;;;;;64.47;58.77;;;3.00;99.90;;;;;;5052398;28;20047;-77
2024/01/21 05:42:48;;;;;;;51.70;41.73;;;3.10;99.90;;;;;;5052890;28;20033;-77
2024/01/21 05:45:14;;;;;;;33.80;31.30;;;3.10;99.90;;;;;;5052452;28;20028;-77
2024/01/21 05:47:40;;;;;;;51.50;48.17;;;3.10;99.90;;;;;;5053076;28;20048;-76
2024/01/21 05:50:06;;;;;;;52.23;48.70;;;3.10;99.90;;;;;;5052811;28;20048;-78
2024/01/21 05:52:33;;;;;;;41.93;39.10;;;3.10;99.90;;;;;;5052553;28;20028;-77
2024/01/21 05:54:59;;;;;;;61.73;57.87;;;3.20;99.90;;;;;;5052836;28;20033;-77
2024/01/21 05:57:25;;;;;;;69.53;54.47;;;3.20;99.90;;;;;;5034022;28;20491;-77
2024/01/21 05:59:51;;;;;;;68.60;64.30;;;3.30;99.90;;;;;;5032893;28;20029;-76
2024/01/21 06:02:18;;;;;;;63.40;59.30;;;3.20;99.90;;;;;;5031995;28;20042;-77
2024/01/21 06:04:44;;;;;;;61.60;57.63;;;3.30;99.90;;;;;;5032627;28;20029;-77
2024/01/21 06:07:10;;;;;;;82.70;77.53;;;3.30;99.90;;;;;;5032668;28;20029;-77
2024/01/21 06:09:36;;;;;;;65.13;61.00;;;3.30;99.90;;;;;;5037565;28;20471;-77
2024/01/21 06:12:02;;;;;;;85.20;80.10;;;3.30;99.90;;;;;;5052028;28;20040;-77
2024/01/21 06:14:28;;;;;;;50.90;47.93;;;3.30;99.90;;;;;;5052444;28;20048;-77
2024/01/21 06:16:55;;;;;;;65.20;45.33;;;3.40;99.90;;;;;;5050400;28;20043;-77
2024/01/21 06:19:21;;;;;;;38.03;35.17;;;3.40;99.90;;;;;;5067638;28;20108;-76
2024/01/21 06:21:47;;;;;;;37.53;34.20;;;3.40;99.90;;;;;;5043555;28;20044;-77
2024/01/21 06:24:13;;;;;;;30.10;27.67;;;3.40;99.90;;;;;;5051872;28;20036;-79
2024/01/21 06:26:40;;;;;;;34.30;31.53;;;3.40;99.90;;;;;;5051857;28;20052;-77
2024/01/21 06:29:07;;;;;;;33.93;31.03;;;3.40;99.90;;;;;;5052117;28;20025;-78
2024/01/21 06:31:33;;;;;;;52.43;48.73;;;3.50;99.90;;;;;;5051601;28;20033;-77
2024/01/21 06:33:59;;;;;;;51.97;48.30;;;3.40;99.90;;;;;;5051763;28;20036;-77
2024/01/21 06:36:25;;;;;;;54.13;50.03;;;3.50;99.90;;;;;;5051947;28;20036;-78
2024/01/21 06:38:52;;;;;;;48.10;45.07;;;3.50;99.90;;;;;;5051760;28;20048;-78
2024/01/21 06:41:18;;;;;;;37.70;34.97;;;3.50;99.90;;;;;;5051705;28;20021;-78
2024/01/21 06:43:44;;;;;;;38.47;35.67;;;3.50;99.90;;;;;;5052127;28;20033;-77
2024/01/21 06:46:10;;;;;;;49.63;46.00;;;3.60;99.90;;;;;;5051269;28;20029;-77
2024/01/21 06:48:36;;;;;;;41.00;37.97;;;3.60;99.90;;;;;;5052269;28;20262;-77
2024/01/21 06:51:21;;;;;;;61.90;57.83;;;3.60;99.90;;;;;;5051719;28;20033;-77
2024/01/21 06:53:47;;;;;;;40.40;37.47;;;3.70;99.90;;;;;;5050836;28;20383;-78
2024/01/21 06:56:13;;;;;;;45.03;42.03;;;3.70;99.90;;;;;;5043154;28;20070;-77
2024/01/21 06:58:39;;;;;;;45.30;42.03;;;3.70;99.90;;;;;;5032150;28;20037;-77
2024/01/21 07:01:05;;;;;;;58.83;54.73;;;3.70;99.90;;;;;;5039042;28;20029;-77
2024/01/21 07:03:32;;;;;;;52.80;49.13;;;3.70;99.90;;;;;;5052058;28;20056;-77
2024/01/21 07:05:58;;;;;;;56.23;52.57;;;3.70;99.90;;;;;;5051952;28;20514;-77
2024/01/21 07:08:25;;;;;;;48.17;44.67;;;3.80;99.90;;;;;;5050474;28;20043;-77
2024/01/21 07:10:51;;;;;;;55.47;51.73;;;3.80;99.90;;;;;;5041225;28;20435;-77
2024/01/21 07:13:17;;;;;;;40.57;37.50;;;3.90;99.90;;;;;;5051648;28;20039;-77
2024/01/21 07:15:43;;;;;;;50.97;47.37;;;4.00;99.90;;;;;;5051306;28;20436;-77
2024/01/21 07:18:09;;;;;;;42.73;39.70;;;3.90;99.90;;;;;;5051727;28;20025;-76
2024/01/21 07:20:35;;;;;;;56.13;52.27;;;3.90;99.90;;;;;;5050887;28;20044;-77
2024/01/21 07:23:01;;;;;;;61.07;57.07;;;4.00;99.90;;;;;;5041806;28;20037;-76
2024/01/21 07:25:27;;;;;;;48.60;44.97;;;4.00;99.90;;;;;;5051685;28;20036;-76
2024/01/21 07:27:53;;;;;;;61.53;57.23;;;4.00;99.90;;;;;;5051411;28;20040;-77
2024/01/21 07:30:19;;;;;;;43.87;40.60;;;4.00;99.90;;;;;;5042391;28;20041;-76
2024/01/21 07:32:45;;;;;;;45.47;42.07;;;4.00;99.90;;;;;;5036829;28;20368;-76
2024/01/21 07:35:12;;;;;;;55.27;51.63;;;4.00;99.90;;;;;;5046653;28;20032;-75
2024/01/21 07:37:38;;;;;;;52.13;48.40;;;4.10;99.90;;;;;;5029597;28;20037;-76
2024/01/21 07:40:04;;;;;;;99.87;94.00;;;4.10;99.90;;;;;;5034702;28;20032;-76
2024/01/21 07:42:31;;;;;;;92.87;87.03;;;4.10;99.90;;;;;;5034786;28;20037;-76
2024/01/21 07:45:00;;;;;;;58.40;54.23;;;4.20;99.90;;;;;;5039842;28;20052;-76
2024/01/21 07:47:27;;;;;;;75.53;71.07;;;4.20;99.90;;;;;;5040806;28;21653;-75
2024/01/21 07:49:53;;;;;;;65.20;60.90;;;4.20;99.90;;;;;;5034781;28;20068;-75
2024/01/21 07:52:19;;;;;;;59.80;55.70;;;4.20;99.90;;;;;;5034746;28;20034;-76
2024/01/21 07:54:45;;;;;;;38.70;35.77;;;4.20;99.90;;;;;;5050563;28;20036;-75
2024/01/21 07:57:12;;;;;;;56.00;52.17;;;4.30;99.90;;;;;;5036204;28;20040;-74
2024/01/21 07:59:38;;;;;;;36.70;33.93;;;4.30;99.90;;;;;;5034836;28;20041;-75
2024/01/21 08:02:04;;;;;;;35.80;32.93;;;4.30;99.90;;;;;;5034085;28;20029;-75
2024/01/21 08:04:30;;;;;;;43.83;40.70;;;4.30;99.90;;;;;;5042862;28;20028;-74
2024/01/21 08:06:56;;;;;;;35.90;32.87;;;4.30;99.90;;;;;;5037741;28;20483;-74
2024/01/21 08:09:22;;;;;;;64.10;59.90;;;4.30;99.90;;;;;;5034768;28;20042;-75
2024/01/21 08:11:48;;;;;;;55.93;51.93;;;4.40;99.90;;;;;;5049838;28;20502;-75
2024/01/21 08:14:15;;;;;;;52.90;49.20;;;4.40;99.90;;;;;;5034911;28;20037;-74
2024/01/21 08:16:41;;;;;;;76.70;71.77;;;4.40;99.90;;;;;;5038003;28;20036;-74
2024/01/21 08:19:07;;;;;;;49.03;45.50;;;4.50;99.90;;;;;;5043032;28;20025;-74
2024/01/21 08:21:33;;;;;;;56.97;53.27;;;4.50;99.90;;;;;;5043900;28;20025;-75
2024/01/21 08:24:00;;;;;;;69.20;64.73;;;4.50;99.90;;;;;;5052898;28;20506;-74
2024/01/21 08:26:26;;;;;;;69.43;65.03;;;4.60;99.90;;;;;;5037616;28;20033;-75
2024/01/21 08:28:52;;;;;;;66.77;62.40;;;4.60;99.90;;;;;;5045806;28;20029;-74
2024/01/21 08:31:18;;;;;;;98.40;91.83;;;4.60;99.90;;;;;;5038874;28;20045;-76
2024/01/21 08:33:44;;;;;;;49.80;45.67;;;4.60;99.90;;;;;;5053259;28;20025;-75
2024/01/21 08:36:10;;;;;;;47.50;43.17;;;4.70;99.90;;;;;;5045908;28;20483;-75
2024/01/21 08:38:38;;;;;;;50.07;46.47;;;4.70;99.90;;;;;;5054096;28;20036;-75
2024/01/21 08:41:04;;;;;;;51.87;47.63;;;4.70;99.90;;;;;;5048251;28;20032;-75
2024/01/21 08:43:30;;;;;;;46.67;43.13;;;4.70;99.90;;;;;;5037490;28;20037;-74
2024/01/21 08:45:56;;;;;;;53.70;49.60;;;4.80;99.90;;;;;;5042272;28;20396;-74
2024/01/21 08:48:22;;;;;;;50.83;46.60;;;4.80;99.90;;;;;;5046893;28;20021;-74
2024/01/21 08:50:48;;;;;;;89.00;56.03;;;4.80;99.90;;;;;;5052458;28;20041;-74
2024/01/21 08:53:14;;;;;;;59.03;54.63;;;4.90;99.90;;;;;;5034147;28;20029;-74
2024/01/21 08:55:40;;;;;;;54.40;50.37;;;4.90;99.90;;;;;;5044280;28;20036;-74
2024/01/21 08:58:07;;;;;;;57.13;53.20;;;4.90;99.90;;;;;;5053984;28;20021;-74
2024/01/21 09:00:33;;;;;;;58.03;53.90;;;4.90;99.90;;;;;;5043022;28;20040;-74
2024/01/21 09:02:59;;;;;;;60.77;56.37;;;4.90;99.90;;;;;;5047368;28;20029;-74
2024/01/21 09:05:27;;;;;;;57.83;53.43;;;4.90;99.90;;;;;;5052587;28;20032;-74
2024/01/21 09:07:53;;;;;;;57.07;52.63;;;5.00;99.90;;;;;;5050006;28;20044;-74
2024/01/21 09:10:21;;;;;;;63.83;59.50;;;5.00;99.90;;;;;;5042667;28;20480;-74
2024/01/21 09:12:47;;;;;;;66.33;61.67;;;5.00;99.90;;;;;;5038308;28;20026;-74
2024/01/21 09:15:13;;;;;;;58.93;54.50;;;5.10;99.90;;;;;;5051434;28;20049;-74
2024/01/21 09:17:41;;;;;;;66.70;61.90;;;5.10;99.90;;;;;;5040628;28;20036;-74
2024/01/21 09:20:07;;;;;;;59.60;55.53;;;5.20;99.90;;;;;;5043595;28;20041;-75
2024/01/21 09:22:33;;;;;;;60.43;56.07;;;5.20;99.90;;;;;;5042138;28;20403;-74
2024/01/21 09:24:59;;;;;;;60.33;55.60;;;5.30;99.90;;;;;;5033263;28;20033;-74
2024/01/21 09:27:26;;;;;;;79.63;73.47;;;5.30;99.90;;;;;;5034442;28;20033;-74
2024/01/21 09:29:52;;;;;;;77.03;71.30;;;5.40;99.90;;;;;;5032930;28;20040;-74
2024/01/21 09:32:18;;;;;;;57.70;53.10;;;5.40;99.90;;;;;;5039871;28;20414;-74
2024/01/21 09:34:44;;;;;;;58.93;54.77;;;5.40;99.90;;;;;;5032704;28;20025;-74
2024/01/21 09:37:10;;;;;;;85.10;79.90;;;5.40;99.90;;;;;;5048627;28;20040;-74
2024/01/21 09:39:37;;;;;;;84.00;78.33;;;5.50;99.90;;;;;;5046154;28;20029;-74
2024/01/21 09:42:06;;;;;;;90.57;84.50;;;5.40;99.90;;;;;;5047296;28;20064;-74
2024/01/21 09:44:32;;;;;;;59.23;54.93;;;5.50;99.90;;;;;;5050487;28;20040;-73
2024/01/21 09:46:59;;;;;;;70.80;65.83;;;5.50;99.90;;;;;;5051457;28;20403;-74
2024/01/21 09:49:25;;;;;;;61.03;56.67;;;5.50;99.90;;;;;;5051365;28;20036;-74
2024/01/21 09:51:52;;;;;;;75.13;69.13;;;5.60;99.90;;;;;;5050928;28;20044;-73
2024/01/21 09:54:22;;;;;;;75.63;70.40;;;5.60;99.90;;;;;;5049959;28;20407;-74
2024/01/21 09:56:48;;;;;;;103.00;95.93;;;5.70;99.90;;;;;;5038741;28;20034;-75
2024/01/21 09:59:14;;;;;;;69.37;64.30;;;5.70;99.90;;;;;;5032320;28;20029;-74
2024/01/21 10:01:40;;;;;;;106.03;98.73;;;5.70;99.90;;;;;;5048548;28;20045;-75
2024/01/21 10:04:10;;;;;;;74.90;69.67;;;5.80;99.90;;;;;;5049798;28;20044;-74
2024/01/21 10:06:36;;;;;;;69.30;64.57;;;5.80;99.90;;;;;;5050979;28;20028;-75
2024/01/21 10:09:17;;;;;;;76.00;70.50;;;5.90;99.90;;;;;;5052757;28;20041;-75
2024/01/21 10:11:53;;;;;;;62.10;57.70;;;5.90;99.90;;;;;;5049288;28;20044;-74
2024/01/21 10:14:20;;;;;;;57.03;52.80;;;5.90;99.90;;;;;;5050695;28;20040;-74
2024/01/21 10:16:47;;;;;;;57.23;52.77;;;5.90;99.90;;;;;;5043851;28;20033;-75
2024/01/21 10:19:14;;;;;;;65.32;60.53;;;6.00;99.90;;;;;;5036191;28;20101;-75
2024/01/21 10:21:40;;;;;;;66.30;61.27;;;6.00;99.90;;;;;;5042787;28;20029;-75
2024/01/21 10:24:08;;;;;;;68.80;63.53;;;6.00;99.90;;;;;;5031882;28;20030;-75
2024/01/21 10:26:41;;;;;;;66.17;61.37;;;6.10;99.90;;;;;;5042368;28;20392;-75
2024/01/21 10:29:07;;;;;;;65.53;60.50;;;6.20;99.90;;;;;;5051051;28;20036;-75
2024/01/21 10:31:33;;;;;;;62.97;58.25;;;6.20;99.90;;;;;;5050485;28;20041;-75
2024/01/21 10:34:03;;;;;;;67.35;62.35;;;6.20;99.90;;;;;;5041788;28;20041;-74
2024/01/21 10:36:33;;;;;;;80.90;58.30;;;6.30;99.90;;;;;;5034450;28;20029;-75
2024/01/21 10:39:02;;;;;;;66.22;61.28;;;6.30;99.90;;;;;;5038107;28;20042;-75
2024/01/21 10:41:31;;;;;;;82.85;76.70;;;6.30;99.90;;;;;;5049508;28;20039;-74
2024/01/21 10:43:57;;;;;;;64.25;59.00;;;6.40;99.90;;;;;;5050137;28;20029;-75
2024/01/21 10:46:26;;;;;;;76.60;71.25;;;6.40;99.90;;;;;;5047087;28;20507;-75
2024/01/21 10:48:57;;;;;;;87.97;81.85;;;6.40;99.90;;;;;;5049725;28;20025;-75
2024/01/21 10:51:23;;;;;;;75.10;69.13;;;6.40;99.90;;;;;;5037137;28;20498;-74
2024/01/21 10:53:52;;;;;;;79.00;73.55;;;6.50;99.90;;;;;;5038582;28;20048;-75
2024/01/21 10:56:19;;;;;;;73.53;67.90;;;6.50;99.90;;;;;;5042881;28;20036;-75
2024/01/21 10:58:49;;;;;;;61.22;56.35;;;6.50;99.90;;;;;;5043651;28;20040;-76
2024/01/21 11:01:19;;;;;;;65.88;60.88;;;6.60;99.90;;;;;;5036830;28;20399;-76
2024/01/21 11:03:48;;;;;;;62.00;57.27;;;6.60;99.90;;;;;;5030995;28;20025;-76
2024/01/21 11:06:15;;;;;;;61.70;57.10;;;6.60;99.90;;;;;;5044962;28;20037;-75
2024/01/21 11:08:45;;;;;;;59.35;55.05;;;6.60;99.90;;;;;;5029089;28;20503;-75
2024/01/21 11:11:20;;;;;;;63.00;58.17;;;6.70;99.90;;;;;;5036278;28;20040;-75
2024/01/21 11:13:49;;;;;;;60.22;55.80;;;6.70;99.90;;;;;;5050620;28;20041;-76
2024/01/21 11:16:30;;;;;;;58.03;53.35;;;6.80;99.90;;;;;;5054357;28;20048;-75
2024/01/21 11:19:01;;;;;;;59.33;55.03;;;6.90;99.90;;;;;;5050626;28;20028;-75
2024/01/21 11:21:31;;;;;;;50.00;46.03;;;6.90;99.90;;;;;;5045606;28;20051;-75
2024/01/21 11:24:03;;;;;;;84.25;79.00;;;7.00;99.90;;;;;;5054969;28;20021;-75
2024/01/21 11:26:30;;;;;;;85.45;80.07;;;7.00;99.90;;;;;;5054155;28;20045;-75
2024/01/21 11:29:05;;;;;;;92.38;86.45;;;7.10;99.90;;;;;;5054364;28;20029;-75
2024/01/21 11:31:32;;;;;;;82.18;76.53;;;7.10;99.90;;;;;;5053358;28;20052;-75
2024/01/21 11:34:17;;;;;;;103.03;97.07;;;7.20;99.90;;;;;;5055136;28;20033;-75
2024/01/21 11:36:43;;;;;;;76.15;71.00;;;7.20;99.90;;;;;;5054658;28;20499;-75
2024/01/21 11:39:09;;;;;;;92.60;86.88;;;7.20;99.90;;;;;;5047405;28;20037;-75
2024/01/21 11:41:43;;;;;;;99.65;93.53;;;7.30;99.90;;;;;;5050016;28;20040;-75
2024/01/21 11:44:13;;;;;;;136.02;127.78;;;7.30;99.90;;;;;;5034625;28;20033;-76
2024/01/21 11:46:40;;;;;;;118.38;110.85;;;7.30;99.90;;;;;;5045945;28;20479;-75
2024/01/21 11:49:07;;;;;;;82.45;76.70;;;7.40;99.90;;;;;;5045732;28;20391;-75
2024/01/21 11:51:34;;;;;;;110.43;103.82;;;7.40;99.90;;;;;;5054395;28;20041;-75
2024/01/21 11:54:00;;;;;;;98.15;92.45;;;7.40;99.90;;;;;;5054747;28;20021;-75
2024/01/21 11:56:26;;;;;;;104.10;97.38;;;7.40;99.90;;;;;;5044356;28;20030;-75
2024/01/21 11:58:52;;;;;;;101.63;95.10;;;7.40;99.90;;;;;;5035575;28;20395;-76
2024/01/21 12:01:20;;;;;;;69.82;65.38;;;7.50;99.90;;;;;;5048794;28;20041;-76
2024/01/21 12:03:49;;;;;;;68.68;63.90;;;7.50;99.90;;;;;;5041495;28;20032;-75
2024/01/21 12:06:15;;;;;;;80.65;75.50;;;7.40;99.90;;;;;;5044858;28;20036;-75
2024/01/21 12:08:44;;;;;;;67.70;63.10;;;7.50;99.90;;;;;;5036118;28;20038;-75
2024/01/21 12:11:11;;;;;;;68.63;63.30;;;7.50;99.90;;;;;;5036842;28;20037;-75
2024/01/21 12:13:39;;;;;;;61.28;56.78;;;7.50;99.90;;;;;;5052210;28;20048;-75
2024/01/21 12:16:07;;;;;;;56.40;52.42;;;7.50;99.90;;;;;;5039801;28;20049;-76
2024/01/21 12:18:40;;;;;;;72.47;67.43;;;7.50;99.90;;;;;;5054369;28;20045;-74
2024/01/21 12:21:06;;;;;;;50.20;46.13;;;7.50;99.90;;;;;;5045779;28;20025;-75
2024/01/21 12:23:32;;;;;;;63.65;59.22;;;7.60;99.90;;;;;;5044225;28;20052;-75
2024/01/21 12:25:59;;;;;;;74.78;69.90;;;7.60;99.90;;;;;;5049883;28;20100;-76
2024/01/21 12:28:25;;;;;;;69.05;64.63;;;7.50;99.90;;;;;;5032579;28;20029;-75
2024/01/21 12:30:53;;;;;;;77.35;72.03;;;7.60;99.90;;;;;;5046388;28;20060;-75
2024/01/21 12:33:19;;;;;;;82.30;76.65;;;7.60;99.90;;;;;;5039630;28;20034;-75